Terminal Aerodrome Forecast
Issued by NWS Upton, NY

Current Version | Previous Version | Text Only | Print | Product List | Glossary On
Versions: 1 2 3 4 5 6 7 8 9 10 11 12 13 14 15 16 17 18 19 20 21 22 23 24 25 26 27 28 29 30 31 32 33
000 FTUS41 KOKX 020500 TAFJFK TAF KJFK 020536Z 0206/0312 24005KT P6SM SCT070 SCT120 TEMPO 0210/0213 6SM BR SCT020 FM021300 23007KT P6SM FEW020 SCT060 FM021600 21010KT P6SM SCT050 FM021900 18015KT P6SM SCT050 FM030100 23009KT P6SM SCT050 BKN150 PROB30 0303/0308 SHRA BKN050 FM030800 28007KT P6SM SCT150=

USA.gov is the U.S. government's official web portal to all federal, state and local government web resources and services.